21:34
Airports
History
Links
Donate
Help keep this website running!
PayPal
Bitcoin
This page is community maintained. The information is intended for PC simulator navigation or reference.
Always use approved charts for navigation.
LATI
Tirana Rinas
Tirana Rinas (LATI)
Durrës, Albania (1504)
(C)
Lat/Lng:41° 24' 53.04" N / 19° 43' 14.05" E
41.414732 / 19.72057
Elevation:126'ft / 38mMSL
ID / ICAO:LATI
Runways:1
Longest:(18-36) 2,735.9m / 8,976ft Asphalt
Controlled:Yes
Distance To
Airport ID:
Airport Radio Frequencies
Tower: 123.5
Approach: 133.15
Nearby VORs <50NM
Nearby NDBs
METARUpdated 08-16-17 21:20 GMT
Altimeter: 29.94
Visibility: 2.5 statute miles
Wind: 2 knots (VRB°)
Temp: 23°c 73°f
Humidity: 64.7%

METAR: LATI 162120Z VRB02KT 4000 FU NSC 23/16 Q1014 NOSIG

(Powered by phpweather)
Runway 18 / 36
Dimensions:2735.9 x 45.1m 8976' x 148'ft
Surface:Asphalt
Edge Lights:Medium intensity
Runway 18 [A]Runway 36 [B]
Heading:174°TH 354°TH
Lat:
Lng:
41° 25' 37.13"N
19° 43' 8.19"E
41° 24' 8.94"N
19° 43' 19.91"E
ALS:SSALFSSALF
TDZ:Yes, lighted
User Notes and Comments
Google Map
Nearby Airports
(C) GJADER 33.6 NM
LAGJ N 349°
(C) KUCOVA 45.4 NM
LAKV SSE 167°
(C) OHRID 55.5 NM
LWOH (WX) ESE 107°
(C) Podgorica 69.3 NM
LYPG (WX) NNW 340°
4 KORCE NORTHWEST 75.2 NM
LAKO SE 134°
(C) DAKOVICA 79.3 NM
LY90 NNE 27°
(C) Tivat 85.5 NM
LYTV (WX) NW 323°
VFR Chart
Flight Planning at SkyVector.com